Time;durP1;ratioP1;P1;durP2;ratioP2;P2;SDS_P1;SDS_P2;PMS_P1;PMS_P2;Temp;Humidity;BMP_temperature;BMP_pressure;BME280_temperature;BME280_humidity;BME280_pressure;Samples;Min_cycle;Max_cycle;Signal;HPM_P1;HPM_P2
2021/06/29 00:00:32;;;;;;;9.53;8.50;;;20.60;1.00;;;;;;4865246;29;20513;-53
2021/06/29 00:03:02;;;;;;;9.73;8.90;;;20.60;51.50;;;;;;4860947;29;20559;-56
2021/06/29 00:05:30;;;;;;;8.60;7.90;;;20.50;27.70;;;;;;4855969;29;20462;-56
2021/06/29 00:07:57;;;;;;;9.20;8.40;;;20.50;1.00;;;;;;4864516;29;20471;-55
2021/06/29 00:10:25;;;;;;;10.37;8.70;;;20.50;99.90;;;;;;4862427;29;20471;-55
2021/06/29 00:12:53;;;;;;;8.30;7.70;;;20.50;99.90;;;;;;4857305;29;20475;-49
2021/06/29 00:15:22;;;;;;;9.93;9.03;;;20.40;99.90;;;;;;4866723;29;20868;-53
2021/06/29 00:17:50;;;;;;;9.63;8.63;;;20.50;99.90;;;;;;4866522;29;20498;-55
2021/06/29 00:20:17;;;;;;;9.93;9.23;;;20.40;1.00;;;;;;4864985;29;20501;-54
2021/06/29 00:22:45;;;;;;;8.40;7.80;;;20.30;99.90;;;;;;4865966;29;20446;-48
2021/06/29 00:25:13;;;;;;;9.03;8.30;;;20.30;1.00;;;;;;4864955;29;20816;-52
2021/06/29 00:27:43;;;;;;;8.63;7.93;;;20.30;99.90;;;;;;4866333;29;20479;-48
2021/06/29 00:30:14;;;;;;;11.43;10.50;;;20.30;1.00;;;;;;4864984;29;20480;-48
2021/06/29 00:32:43;;;;;;;9.90;9.00;;;20.30;43.40;;;;;;4861623;29;20926;-54
2021/06/29 00:35:12;;;;;;;9.97;8.97;;;20.20;99.90;;;;;;4865136;29;20475;-53
2021/06/29 00:37:43;;;;;;;10.77;9.83;;;20.20;99.90;;;;;;4864004;29;20916;-50
2021/06/29 00:40:12;;;;;;;9.70;8.93;;;20.20;99.90;;;;;;4863852;29;20972;-49
2021/06/29 00:42:40;;;;;;;9.73;8.83;;;20.10;1.00;;;;;;4865016;29;20479;-54
2021/06/29 00:45:09;;;;;;;10.90;9.90;;;20.00;99.90;;;;;;4865724;29;20479;-52
2021/06/29 00:47:37;;;;;;;9.63;8.83;;;20.00;1.00;;;;;;4865158;29;20471;-52
2021/06/29 00:50:06;;;;;;;10.07;9.17;;;20.00;99.90;;;;;;4879796;29;20498;-56
2021/06/29 00:52:34;;;;;;;9.73;8.90;;;20.00;27.00;;;;;;4884416;29;20481;-56
2021/06/29 00:55:02;;;;;;;10.17;9.33;;;20.00;1.00;;;;;;4882739;29;20484;-56
2021/06/29 00:57:31;;;;;;;10.67;9.50;;;20.00;1.00;;;;;;4884215;29;20478;-56
2021/06/29 00:59:58;;;;;;;9.43;8.73;;;20.00;99.90;;;;;;4883160;29;20478;-56
2021/06/29 01:02:26;;;;;;;9.70;9.00;;;20.00;15.40;;;;;;4884345;29;20901;-56
2021/06/29 01:04:53;;;;;;;9.50;8.80;;;20.00;99.90;;;;;;4879540;29;20490;-53
2021/06/29 01:07:21;;;;;;;9.70;8.90;;;20.00;99.90;;;;;;4879350;29;20449;-52
2021/06/29 01:09:48;;;;;;;9.30;8.60;;;20.00;99.90;;;;;;4884184;29;20473;-52
2021/06/29 01:12:16;;;;;;;10.10;9.30;;;20.00;1.00;;;;;;4882501;29;20506;-54
2021/06/29 01:14:43;;;;;;;12.03;9.70;;;20.00;99.90;;;;;;4884217;29;20503;-52
2021/06/29 01:17:10;;;;;;;10.13;9.37;;;20.00;1.00;;;;;;4882459;29;20527;-49
2021/06/29 01:19:43;;;;;;;10.20;9.50;;;20.10;1.00;;;;;;4883374;29;20518;-50
2021/06/29 01:22:12;;;;;;;9.63;8.67;;;20.10;1.00;;;;;;4883484;29;20508;-51
2021/06/29 01:24:41;;;;;;;10.37;9.43;;;20.00;99.90;;;;;;4883212;29;20453;-51
2021/06/29 01:27:23;;;;;;;11.63;10.80;;;20.00;1.00;;;;;;4883576;29;20573;-52
2021/06/29 01:30:59;;;;;;;10.90;10.10;;;19.90;1.00;;;;;;4882221;29;20538;-55
2021/06/29 01:32:39;;;;;;;11.60;10.60;;;19.80;99.90;;;;;;4883429;29;20468;-49
2021/06/29 01:35:08;;;;;;;11.40;10.50;;;19.80;1.00;;;;;;4882816;29;20557;-45
2021/06/29 01:37:37;;;;;;;10.53;9.63;;;19.70;1.00;;;;;;4883651;29;20475;-50
2021/06/29 01:40:08;;;;;;;9.87;9.17;;;19.70;1.00;;;;;;4883101;29;20497;-47
2021/06/29 01:42:38;;;;;;;10.10;9.20;;;19.70;1.00;;;;;;4882937;29;20843;-48
2021/06/29 01:45:07;;;;;;;11.10;10.20;;;19.70;1.00;;;;;;4883279;29;20457;-50
2021/06/29 01:47:50;;;;;;;12.07;11.07;;;19.70;1.00;;;;;;4881964;29;20518;-51
2021/06/29 01:50:21;;;;;;;11.87;10.97;;;19.60;1.00;;;;;;4883723;29;20501;-52
2021/06/29 01:52:58;;;;;;;12.53;11.33;;;19.60;1.00;;;;;;4882191;29;20749;-47
2021/06/29 01:55:26;;;;;;;12.00;11.00;;;19.60;1.00;;;;;;4877616;29;20451;-49
2021/06/29 01:57:53;;;;;;;10.33;9.43;;;19.60;1.00;;;;;;4882018;29;20453;-50
2021/06/29 02:00:21;;;;;;;11.20;10.20;;;19.70;1.00;;;;;;4878118;29;20453;-50
2021/06/29 02:02:48;;;;;;;12.47;11.37;;;19.60;1.00;;;;;;4882387;29;20606;-49
2021/06/29 02:05:16;;;;;;;11.17;10.17;;;19.60;1.00;;;;;;4875781;29;20486;-47
2021/06/29 02:07:44;;;;;;;11.83;10.83;;;19.60;1.00;;;;;;4880298;29;20460;-49
2021/06/29 02:10:14;;;;;;;11.63;10.53;;;19.60;1.00;;;;;;4882035;29;20471;-55
2021/06/29 02:12:43;;;;;;;11.40;10.30;;;19.60;1.00;;;;;;4883334;29;20843;-52
2021/06/29 02:15:13;;;;;;;11.40;10.40;;;19.50;1.00;;;;;;4882696;29;20596;-55
2021/06/29 02:17:58;;;;;;;11.37;10.47;;;19.50;57.90;;;;;;4862490;29;20458;-56
2021/06/29 02:20:28;;;;;;;11.90;11.00;;;19.50;95.60;;;;;;4882877;29;20470;-56
2021/06/29 02:22:56;;;;;;;11.83;10.73;;;19.60;70.20;;;;;;4882066;29;20534;-56
2021/06/29 02:25:24;;;;;;;11.83;10.73;;;19.50;62.60;;;;;;4883400;29;20463;-56
2021/06/29 02:27:51;;;;;;;12.30;11.40;;;19.50;99.90;;;;;;4881908;29;20904;-56
2021/06/29 02:30:19;;;;;;;11.20;10.40;;;19.50;99.90;;;;;;4882570;29;20778;-54
2021/06/29 02:32:46;;;;;;;11.40;10.40;;;19.50;98.60;;;;;;4882993;29;20476;-52
2021/06/29 02:35:13;;;;;;;12.20;11.07;;;19.50;99.90;;;;;;4882039;29;20474;-51
2021/06/29 02:37:40;;;;;;;11.53;10.63;;;19.50;91.00;;;;;;4882483;29;20474;-49
2021/06/29 02:40:09;;;;;;;12.10;11.17;;;19.50;99.90;;;;;;4881780;29;20470;-47
2021/06/29 02:42:38;;;;;;;10.97;10.17;;;19.50;99.90;;;;;;4883608;29;20506;-49
2021/06/29 02:45:08;;;;;;;12.30;11.20;;;19.50;99.90;;;;;;4883278;29;20449;-46
2021/06/29 02:47:36;;;;;;;13.13;11.80;;;19.50;57.50;;;;;;4877129;29;20448;-51
2021/06/29 02:50:06;;;;;;;12.03;10.93;;;19.50;1.00;;;;;;4861042;29;20499;-45
2021/06/29 02:52:33;;;;;;;11.73;10.83;;;19.40;44.70;;;;;;4858466;29;20471;-47
2021/06/29 02:55:00;;;;;;;11.93;10.93;;;19.40;99.90;;;;;;4864370;29;20867;-47
2021/06/29 02:57:27;;;;;;;11.53;10.63;;;19.20;99.90;;;;;;4864278;29;20507;-46
2021/06/29 02:59:58;;;;;;;12.37;11.17;;;19.20;99.90;;;;;;4864007;29;20450;-46
2021/06/29 03:02:25;;;;;;;12.37;11.33;;;19.10;99.90;;;;;;4857479;29;20477;-50
2021/06/29 03:04:53;;;;;;;12.30;11.40;;;19.20;99.90;;;;;;4855735;29;20808;-52
2021/06/29 03:07:20;;;;;;;10.80;9.80;;;19.10;99.90;;;;;;4863763;29;20478;-47
2021/06/29 03:09:47;;;;;;;10.73;9.83;;;19.10;99.90;;;;;;4864118;29;20510;-55
2021/06/29 03:12:14;;;;;;;10.73;9.83;;;19.10;99.90;;;;;;4864306;29;20475;-55
2021/06/29 03:14:41;;;;;;;11.53;10.57;;;19.10;99.90;;;;;;4863681;29;20445;-45
2021/06/29 03:17:10;;;;;;;10.90;10.00;;;19.10;99.90;;;;;;4864530;29;20481;-45
2021/06/29 03:19:37;;;;;;;11.07;10.17;;;19.10;99.90;;;;;;4866393;29;20769;-45
2021/06/29 03:22:09;;;;;;;10.93;10.00;;;19.10;99.90;;;;;;4867156;29;20503;-48
2021/06/29 03:24:36;;;;;;;9.83;9.07;;;19.10;99.90;;;;;;4867374;29;20453;-46
2021/06/29 03:27:03;;;;;;;11.07;10.07;;;19.00;62.50;;;;;;4866882;29;20789;-46
2021/06/29 03:29:30;;;;;;;10.10;9.20;;;19.00;99.90;;;;;;4867616;29;20474;-46
2021/06/29 03:31:58;;;;;;;11.20;10.20;;;19.00;95.10;;;;;;4865997;29;20465;-47
2021/06/29 03:34:26;;;;;;;11.37;10.17;;;19.00;99.90;;;;;;4867418;29;20474;-45
2021/06/29 03:36:56;;;;;;;10.53;9.73;;;19.00;99.90;;;;;;4867011;29;20458;-47
2021/06/29 03:39:24;;;;;;;11.20;10.10;;;19.00;99.90;;;;;;4867737;29;20821;-48
2021/06/29 03:41:51;;;;;;;11.73;10.70;;;18.90;99.90;;;;;;4866875;29;20804;-47
2021/06/29 03:44:18;;;;;;;11.57;10.57;;;19.00;99.90;;;;;;4867016;29;20743;-46
2021/06/29 03:46:45;;;;;;;10.80;9.80;;;19.00;99.90;;;;;;4866625;29;20476;-45
2021/06/29 03:49:13;;;;;;;10.87;9.87;;;19.00;99.90;;;;;;4875236;29;20477;-47
2021/06/29 03:51:41;;;;;;;11.43;10.60;;;19.00;99.90;;;;;;4885780;29;20490;-45
2021/06/29 03:54:11;;;;;;;12.10;10.90;;;19.00;99.90;;;;;;4885232;29;20880;-52
2021/06/29 03:56:38;;;;;;;11.00;9.67;;;19.00;99.90;;;;;;4885527;29;20474;-53
2021/06/29 03:59:07;;;;;;;11.00;10.17;;;19.00;99.90;;;;;;4885624;29;20519;-52
2021/06/29 04:01:38;;;;;;;11.13;10.10;;;19.00;58.00;;;;;;4884769;29;20498;-54
2021/06/29 04:04:05;;;;;;;10.03;9.20;;;19.00;57.40;;;;;;4877736;29;20753;-53
2021/06/29 04:06:35;;;;;;;9.87;9.10;;;19.00;46.80;;;;;;4884169;29;20783;-49
2021/06/29 04:09:07;;;;;;;10.23;9.43;;;19.10;20.30;;;;;;4879108;29;20445;-49
2021/06/29 04:11:34;;;;;;;11.03;9.70;;;19.10;1.00;;;;;;4880181;29;20493;-47
2021/06/29 04:14:02;;;;;;;10.80;9.70;;;19.10;1.00;;;;;;4885086;29;20572;-45
2021/06/29 04:16:29;;;;;;;9.70;8.80;;;19.20;1.00;;;;;;4885059;29;20470;-46
2021/06/29 04:18:56;;;;;;;10.20;9.40;;;19.20;1.00;;;;;;4884085;29;20445;-45
2021/06/29 04:21:23;;;;;;;10.33;9.53;;;19.30;1.00;;;;;;4885110;29;20495;-45
2021/06/29 04:23:52;;;;;;;11.13;10.23;;;19.40;99.90;;;;;;4884483;29;20460;-48
2021/06/29 04:26:21;;;;;;;10.57;9.60;;;19.50;1.00;;;;;;4884593;29;20449;-45
2021/06/29 04:28:48;;;;;;;10.83;9.83;;;19.60;99.90;;;;;;4883991;29;20485;-47
2021/06/29 04:31:17;;;;;;;10.93;10.03;;;19.60;1.00;;;;;;4885139;29;20470;-47
2021/06/29 04:33:44;;;;;;;10.00;9.30;;;19.70;1.00;;;;;;4884889;29;21157;-48
2021/06/29 04:36:12;;;;;;;11.07;10.10;;;19.80;30.70;;;;;;4884394;29;20530;-47
2021/06/29 04:38:39;;;;;;;11.53;10.00;;;19.90;99.90;;;;;;4884298;29;20914;-45
2021/06/29 04:41:06;;;;;;;11.70;10.70;;;20.10;99.90;;;;;;4884802;29;20883;-45
2021/06/29 04:43:37;;;;;;;9.70;8.90;;;20.10;99.90;;;;;;4878487;29;20478;-45
2021/06/29 04:46:04;;;;;;;10.23;9.33;;;20.10;1.00;;;;;;4884688;29;20474;-45
2021/06/29 04:48:31;;;;;;;9.97;9.17;;;20.10;99.90;;;;;;4880419;29;20920;-45
2021/06/29 04:50:59;;;;;;;9.40;8.60;;;20.10;1.00;;;;;;4866028;29;20809;-45
2021/06/29 04:53:26;;;;;;;9.40;8.60;;;20.20;1.00;;;;;;4865687;29;20901;-45
2021/06/29 04:55:53;;;;;;;10.30;9.50;;;20.30;1.00;;;;;;4858892;29;20484;-52
2021/06/29 04:58:20;;;;;;;10.80;9.90;;;20.30;1.00;;;;;;4864657;29;20471;-49
2021/06/29 05:00:50;;;;;;;11.03;10.17;;;20.20;1.00;;;;;;4864573;29;20478;-46
2021/06/29 05:03:17;;;;;;;12.40;10.27;;;20.20;90.00;;;;;;4858642;29;20531;-46
2021/06/29 05:05:46;;;;;;;10.73;9.73;;;20.20;1.00;;;;;;4862076;29;21157;-50
2021/06/29 05:08:13;;;;;;;11.50;10.60;;;20.20;1.00;;;;;;4864401;29;20479;-45
2021/06/29 05:10:41;;;;;;;12.10;11.10;;;20.00;1.00;;;;;;4859600;29;20471;-48
2021/06/29 05:13:08;;;;;;;11.97;11.07;;;20.00;99.90;;;;;;4859699;29;20442;-49
2021/06/29 05:15:35;;;;;;;12.07;11.07;;;20.00;1.00;;;;;;4859209;29;20467;-51
2021/06/29 05:18:04;;;;;;;13.27;12.10;;;20.10;1.00;;;;;;4859360;29;20475;-47
2021/06/29 05:20:31;;;;;;;12.27;11.17;;;20.00;1.00;;;;;;4865729;29;20763;-45
2021/06/29 05:23:06;;;;;;;12.80;11.53;;;19.90;1.00;;;;;;4865762;29;20499;-49
2021/06/29 05:25:33;;;;;;;13.17;12.17;;;19.90;1.00;;;;;;4860070;29;20886;-44
2021/06/29 05:28:03;;;;;;;12.63;11.57;;;20.00;1.00;;;;;;4865454;29;20759;-46
2021/06/29 05:30:32;;;;;;;12.37;11.40;;;20.10;1.00;;;;;;4863924;29;20458;-45
2021/06/29 05:33:00;;;;;;;12.17;11.10;;;20.30;99.90;;;;;;4865188;29;20467;-45
2021/06/29 05:35:28;;;;;;;12.73;11.83;;;20.50;99.90;;;;;;4863407;29;20471;-45
2021/06/29 05:38:00;;;;;;;13.07;12.00;;;20.60;1.00;;;;;;4859212;29;20475;-45
2021/06/29 05:40:30;;;;;;;13.10;12.00;;;20.70;99.90;;;;;;4857448;29;20932;-47
2021/06/29 05:42:57;;;;;;;11.60;10.80;;;20.70;1.00;;;;;;4862987;29;20854;-48
2021/06/29 05:45:24;;;;;;;12.53;11.53;;;20.60;1.00;;;;;;4864282;29;20446;-45
2021/06/29 05:47:52;;;;;;;11.90;11.07;;;20.60;1.00;;;;;;4865137;29;20477;-53
2021/06/29 05:50:19;;;;;;;12.37;11.37;;;20.60;1.00;;;;;;4864931;29;20892;-45
2021/06/29 05:52:48;;;;;;;13.13;12.03;;;20.70;1.00;;;;;;4865460;29;20751;-47
2021/06/29 05:55:18;;;;;;;14.20;13.00;;;20.70;1.00;;;;;;4865159;29;20764;-45
2021/06/29 05:57:45;;;;;;;12.87;11.80;;;20.60;1.00;;;;;;4865516;29;20569;-44
2021/06/29 06:00:15;;;;;;;13.40;12.30;;;20.50;1.00;;;;;;4863649;29;20457;-47
2021/06/29 06:02:45;;;;;;;14.60;13.30;;;20.50;1.00;;;;;;4862026;29;20506;-45
2021/06/29 06:05:12;;;;;;;13.03;11.93;;;20.70;1.00;;;;;;4860169;29;20471;-45
2021/06/29 06:07:41;;;;;;;14.10;12.83;;;20.90;1.00;;;;;;4858945;29;20457;-46
2021/06/29 06:10:10;;;;;;;13.97;12.70;;;21.10;99.90;;;;;;4863954;29;20570;-49
2021/06/29 06:12:37;;;;;;;12.60;11.70;;;21.20;99.90;;;;;;4864579;29;20842;-48
2021/06/29 06:15:05;;;;;;;11.93;10.93;;;21.10;99.90;;;;;;4864464;29;20446;-47
2021/06/29 06:17:37;;;;;;;13.93;12.83;;;20.90;99.90;;;;;;4864966;29;20481;-46
2021/06/29 06:20:10;;;;;;;13.40;12.30;;;20.90;99.90;;;;;;4863542;29;20514;-48
2021/06/29 06:22:38;;;;;;;12.67;11.77;;;20.80;99.90;;;;;;4862468;29;20571;-46
2021/06/29 06:25:06;;;;;;;13.43;12.20;;;20.70;99.90;;;;;;4863172;29;20483;-51
2021/06/29 06:27:35;;;;;;;14.13;12.67;;;20.80;99.90;;;;;;4863749;29;20478;-45
2021/06/29 06:30:05;;;;;;;14.13;12.77;;;20.80;99.90;;;;;;4864397;29;20496;-46
2021/06/29 06:32:35;;;;;;;15.17;13.77;;;20.80;99.90;;;;;;4864625;29;20474;-45
2021/06/29 06:35:07;;;;;;;15.03;13.53;;;20.90;99.90;;;;;;4864679;29;20764;-46
2021/06/29 06:37:34;;;;;;;13.50;12.27;;;20.70;99.90;;;;;;4864220;29;20467;-47
2021/06/29 06:40:01;;;;;;;14.07;12.97;;;20.60;99.90;;;;;;4862464;29;20446;-49
2021/06/29 06:42:28;;;;;;;22.60;20.80;;;20.50;1.00;;;;;;4862128;29;20959;-46
2021/06/29 06:44:57;;;;;;;31.90;29.03;;;20.40;1.00;;;;;;4862869;29;20450;-46
2021/06/29 06:47:24;;;;;;;32.47;29.57;;;20.20;99.90;;;;;;4863674;29;20881;-47
2021/06/29 06:49:52;;;;;;;31.07;28.13;;;20.20;1.00;;;;;;4862920;29;20498;-46
2021/06/29 06:52:20;;;;;;;29.27;26.63;;;20.20;1.00;;;;;;4863437;29;20446;-47
2021/06/29 06:54:47;;;;;;;28.93;26.23;;;20.20;1.00;;;;;;4868183;29;20479;-46
2021/06/29 06:57:19;;;;;;;24.13;22.03;;;20.30;99.90;;;;;;4867818;29;20486;-52
2021/06/29 06:59:46;;;;;;;23.27;19.97;;;20.20;99.90;;;;;;4867314;29;20536;-47
2021/06/29 07:02:15;;;;;;;19.97;18.23;;;20.30;99.90;;;;;;4867913;29;20506;-50
2021/06/29 07:04:42;;;;;;;20.60;18.90;;;20.50;1.00;;;;;;4860490;29;20497;-49
2021/06/29 07:07:09;;;;;;;17.73;16.13;;;20.80;1.00;;;;;;4867115;29;20486;-47
2021/06/29 07:09:36;;;;;;;15.97;14.53;;;21.00;99.90;;;;;;4867702;29;20467;-46
2021/06/29 07:12:06;;;;;;;15.30;14.03;;;21.00;99.90;;;;;;4867489;29;20471;-48
2021/06/29 07:14:33;;;;;;;15.20;14.00;;;21.10;99.90;;;;;;4865953;29;20510;-52
2021/06/29 07:17:03;;;;;;;13.80;12.70;;;21.00;99.90;;;;;;4861415;29;20457;-49
2021/06/29 07:19:31;;;;;;;12.67;11.67;;;21.00;99.90;;;;;;4866945;29;20478;-48
2021/06/29 07:22:01;;;;;;;12.40;11.50;;;21.00;99.90;;;;;;4867258;29;20788;-54
2021/06/29 07:24:28;;;;;;;12.80;11.60;;;21.00;99.90;;;;;;4867629;29;20757;-50
2021/06/29 07:26:55;;;;;;;12.73;11.70;;;21.10;99.90;;;;;;4867654;29;20479;-51
2021/06/29 07:29:22;;;;;;;11.60;10.70;;;21.00;99.90;;;;;;4867358;29;20450;-53
2021/06/29 07:31:49;;;;;;;13.00;11.70;;;20.90;99.90;;;;;;4867212;29;20456;-47
2021/06/29 07:34:17;;;;;;;11.20;10.30;;;21.00;99.90;;;;;;4867487;29;20474;-47
2021/06/29 07:36:47;;;;;;;11.40;10.40;;;21.10;92.90;;;;;;4866900;29;20483;-45
2021/06/29 07:39:14;;;;;;;11.10;10.10;;;21.10;99.90;;;;;;4866819;29;20467;-47
2021/06/29 07:41:42;;;;;;;10.87;10.07;;;21.20;89.60;;;;;;4867474;29;20478;-49
2021/06/29 08:21:59;;;;;;;8.00;7.40;;;21.20;1.00;;;;;;4431712;23;20505;-48
2021/06/29 08:24:26;;;;;;;8.13;7.43;;;21.30;1.00;;;;;;4904806;29;20469;-48
2021/06/29 08:26:54;;;;;;;8.80;8.10;;;21.30;1.00;;;;;;4903781;29;20477;-52
2021/06/29 08:29:21;;;;;;;8.90;8.20;;;21.60;1.00;;;;;;4903054;29;20505;-54
2021/06/29 08:31:48;;;;;;;7.77;7.17;;;21.80;1.00;;;;;;4904187;29;20753;-55
2021/06/29 08:34:15;;;;;;;7.37;6.77;;;22.00;1.00;;;;;;4903096;29;20477;-55
2021/06/29 08:36:42;;;;;;;8.83;6.13;;;22.20;1.00;;;;;;4897807;29;20469;-49
2021/06/29 08:39:13;;;;;;;6.60;6.10;;;22.70;1.00;;;;;;4897598;29;20478;-55
2021/06/29 08:41:42;;;;;;;6.53;6.00;;;22.90;1.00;;;;;;4898140;29;20890;-53
2021/06/29 08:44:10;;;;;;;7.00;6.30;;;23.10;1.00;;;;;;4903618;29;20547;-53
2021/06/29 08:46:37;;;;;;;6.43;5.83;;;23.40;1.00;;;;;;4903256;29;20477;-50
2021/06/29 08:49:07;;;;;;;6.97;6.37;;;23.70;1.00;;;;;;4903184;29;20473;-52
2021/06/29 08:51:35;;;;;;;7.00;6.50;;;23.60;1.00;;;;;;4903205;29;20476;-52
2021/06/29 08:54:03;;;;;;;8.47;7.50;;;23.30;1.00;;;;;;4903084;29;20477;-52
2021/06/29 08:56:35;;;;;;;7.07;6.57;;;23.00;1.00;;;;;;4900457;29;20573;-50
2021/06/29 08:59:02;;;;;;;7.20;6.50;;;23.10;1.00;;;;;;4901958;29;20846;-46
2021/06/29 09:01:31;;;;;;;8.07;7.47;;;23.30;1.00;;;;;;4902293;29;20824;-52
2021/06/29 09:03:58;;;;;;;8.17;7.57;;;23.30;1.00;;;;;;4898847;29;20516;-48
2021/06/29 09:06:36;;;;;;;10.60;8.40;;;23.40;1.00;;;;;;4902482;29;20461;-51
2021/06/29 09:09:22;;;;;;;8.73;8.03;;;24.40;1.00;;;;;;4921463;29;20869;-53
2021/06/29 09:11:50;;;;;;;7.80;6.93;;;25.20;1.00;;;;;;4922024;29;20472;-52
2021/06/29 09:14:18;;;;;;;7.43;6.93;;;26.10;1.00;;;;;;4921157;29;20460;-50
2021/06/29 09:16:47;;;;;;;7.30;6.70;;;26.80;1.00;;;;;;4919853;29;20472;-54
2021/06/29 09:19:34;;;;;;;8.70;7.97;;;26.70;1.00;;;;;;4914959;29;20548;-55
2021/06/29 09:22:25;;;;;;;8.43;7.83;;;26.60;1.00;;;;;;4903768;29;20492;-53
2021/06/29 09:24:57;;;;;;;8.67;8.10;;;26.80;1.00;;;;;;4921255;29;20446;-51
2021/06/29 09:27:46;;;;;;;9.97;9.17;;;26.30;99.90;;;;;;4921950;29;20476;-53
2021/06/29 09:30:39;;;;;;;10.33;9.43;;;25.60;1.00;;;;;;4921673;29;20515;-51
2021/06/29 09:33:11;;;;;;;12.00;10.80;;;25.00;1.00;;;;;;4910491;29;20466;-50
2021/06/29 09:35:41;;;;;;;10.93;9.90;;;24.80;1.00;;;;;;4912399;29;20473;-56
2021/06/29 09:38:18;;;;;;;18.53;11.00;;;24.40;1.00;;;;;;4913722;29;20456;-53
2021/06/29 09:40:54;;;;;;;11.70;10.70;;;24.40;1.00;;;;;;4907890;29;20504;-51
2021/06/29 09:43:24;;;;;;;11.67;10.57;;;24.10;1.00;;;;;;4912490;29;20501;-52
2021/06/29 09:45:55;;;;;;;10.50;9.57;;;24.40;1.00;;;;;;4912005;29;20477;-54
2021/06/29 09:48:36;;;;;;;10.77;9.80;;;24.80;1.00;;;;;;4921802;29;20532;-55
2021/06/29 09:51:07;;;;;;;10.07;9.17;;;24.70;1.00;;;;;;4909906;29;20469;-53
2021/06/29 09:53:39;;;;;;;11.83;10.80;;;24.60;1.00;;;;;;4911932;29;20938;-54
2021/06/29 09:56:12;;;;;;;12.10;10.90;;;24.60;1.00;;;;;;4913490;29;20554;-55
2021/06/29 09:58:44;;;;;;;13.30;12.10;;;24.90;1.00;;;;;;4907610;29;20476;-50
2021/06/29 10:01:15;;;;;;;10.87;9.97;;;25.10;1.00;;;;;;4920608;29;20476;-53
2021/06/29 10:03:42;;;;;;;11.37;10.33;;;25.30;1.00;;;;;;4913899;29;20528;-53
2021/06/29 10:06:12;;;;;;;11.93;10.80;;;25.20;1.00;;;;;;4918757;29;20485;-51
2021/06/29 10:08:41;;;;;;;11.83;10.83;;;24.30;1.00;;;;;;4921031;29;20444;-52
2021/06/29 10:11:11;;;;;;;12.57;11.50;;;24.20;1.00;;;;;;4914108;29;20474;-53
2021/06/29 10:13:44;;;;;;;12.33;11.00;;;24.20;1.00;;;;;;4919077;29;20464;-49
2021/06/29 10:16:13;;;;;;;11.70;10.40;;;23.70;1.00;;;;;;4920479;29;20897;-47
2021/06/29 10:18:48;;;;;;;11.77;10.77;;;23.60;1.00;;;;;;4921267;29;20490;-51
2021/06/29 10:21:22;;;;;;;11.30;10.10;;;23.70;1.00;;;;;;4920251;29;20830;-55
2021/06/29 10:23:53;;;;;;;11.30;10.27;;;23.70;1.00;;;;;;4921245;29;20782;-50
2021/06/29 10:26:22;;;;;;;10.60;9.63;;;24.30;1.00;;;;;;4920660;29;20481;-53
2021/06/29 10:28:51;;;;;;;12.27;11.27;;;25.50;1.00;;;;;;4919567;29;20472;-53
2021/06/29 10:31:21;;;;;;;11.37;10.30;;;26.40;1.00;;;;;;4920144;29;20451;-52
2021/06/29 10:33:52;;;;;;;10.00;9.20;;;26.60;1.00;;;;;;4921257;29;20878;-53
2021/06/29 10:36:20;;;;;;;11.83;10.63;;;26.30;1.00;;;;;;4907043;29;20478;-54
2021/06/29 10:38:48;;;;;;;11.90;10.83;;;25.60;1.00;;;;;;4907093;29;20467;-56
2021/06/29 10:41:16;;;;;;;12.00;10.87;;;25.80;1.00;;;;;;4913860;29;20481;-57
2021/06/29 10:43:44;;;;;;;12.77;11.57;;;26.80;1.00;;;;;;4915862;29;20507;-57
2021/06/29 10:46:40;;;;;;;11.43;10.53;;;27.20;99.90;;;;;;4920303;29;20754;-57
2021/06/29 10:49:27;;;;;;;13.60;11.20;;;27.10;99.90;;;;;;4920565;29;20571;-57
2021/06/29 10:51:55;;;;;;;12.80;11.70;;;26.70;1.00;;;;;;4920555;29;20491;-54
2021/06/29 10:54:39;;;;;;;11.27;10.20;;;27.60;1.00;;;;;;4920551;29;20871;-57
2021/06/29 10:57:10;;;;;;;12.23;11.10;;;28.70;99.90;;;;;;4920682;29;20493;-56
2021/06/29 10:59:39;;;;;;;10.67;9.63;;;29.60;99.90;;;;;;4911692;29;20480;-52
2021/06/29 11:02:08;;;;;;;10.30;8.93;;;29.50;99.90;;;;;;4912988;29;20512;-56
2021/06/29 11:04:55;;;;;;;10.77;9.80;;;30.10;99.90;;;;;;4895999;29;20495;-57
2021/06/29 11:07:42;;;;;;;11.23;10.33;;;30.10;99.90;;;;;;4915315;29;20568;-57
2021/06/29 11:10:13;;;;;;;12.53;10.67;;;29.20;99.90;;;;;;4919979;29;20547;-54
2021/06/29 11:12:48;;;;;;;11.60;10.70;;;28.60;99.90;;;;;;4920142;29;20472;-55
2021/06/29 11:15:16;;;;;;;13.00;11.90;;;27.80;99.90;;;;;;4920070;29;20478;-50
2021/06/29 11:18:00;;;;;;;12.10;11.00;;;27.10;99.90;;;;;;4920295;29;20512;-52
2021/06/29 11:20:39;;;;;;;11.47;10.57;;;28.10;99.90;;;;;;4919427;29;20476;-55
2021/06/29 11:23:11;;;;;;;10.70;9.80;;;28.60;99.90;;;;;;4918732;29;20472;-53
2021/06/29 11:25:47;;;;;;;9.70;8.90;;;28.80;99.90;;;;;;4913751;29;20476;-50
2021/06/29 11:28:17;;;;;;;10.23;9.47;;;28.90;99.90;;;;;;4919756;29;20472;-55
2021/06/29 11:31:11;;;;;;;10.87;9.77;;;28.00;99.90;;;;;;4919054;29;20469;-51
2021/06/29 11:33:58;;;;;;;10.27;9.47;;;27.10;99.90;;;;;;4920282;29;20490;-51
2021/06/29 11:36:53;;;;;;;11.93;10.90;;;26.90;99.90;;;;;;4907511;29;20468;-50
2021/06/29 11:39:31;;;;;;;10.40;9.63;;;27.30;99.90;;;;;;4919691;29;20492;-57
2021/06/29 11:42:01;;;;;;;11.10;10.20;;;27.00;99.90;;;;;;4915948;29;20476;-50
2021/06/29 11:44:50;;;;;;;11.30;10.50;;;27.20;99.90;;;;;;4923851;29;20572;-48
2021/06/29 11:47:18;;;;;;;11.40;10.30;;;28.40;99.90;;;;;;4923061;29;21027;-47
2021/06/29 11:50:14;;;;;;;11.47;10.43;;;28.70;99.90;;;;;;4923511;29;20478;-48
2021/06/29 11:52:44;;;;;;;14.03;12.93;;;29.60;99.90;;;;;;4923495;29;20530;-52
2021/06/29 11:55:17;;;;;;;11.30;10.40;;;30.20;99.90;;;;;;4922906;29;20476;-49
2021/06/29 11:57:47;;;;;;;9.93;9.23;;;31.00;99.90;;;;;;4923015;29;20924;-56
2021/06/29 12:00:26;;;;;;;10.00;9.20;;;31.50;99.90;;;;;;4921963;29;20941;-52
2021/06/29 12:03:01;;;;;;;10.03;9.27;;;30.50;99.90;;;;;;4914598;29;20561;-56
2021/06/29 12:05:32;;;;;;;8.90;8.30;;;29.90;99.90;;;;;;4906644;29;20502;-50
2021/06/29 12:08:02;;;;;;;11.97;11.07;;;30.10;99.90;;;;;;4924650;29;20478;-54
2021/06/29 12:10:32;;;;;;;13.53;12.33;;;29.80;99.90;;;;;;4918447;29;20484;-52
2021/06/29 12:13:03;;;;;;;12.70;11.60;;;29.30;99.90;;;;;;4916094;29;20927;-48
2021/06/29 12:15:33;;;;;;;13.70;12.70;;;28.60;99.90;;;;;;4921814;29;20550;-50
2021/06/29 12:18:12;;;;;;;13.60;12.40;;;29.50;99.90;;;;;;4915427;29;20786;-52
2021/06/29 12:20:42;;;;;;;12.30;11.30;;;29.80;99.90;;;;;;4910736;29;20497;-49
2021/06/29 12:23:13;;;;;;;11.30;10.30;;;30.50;99.90;;;;;;4903363;29;20475;-48
2021/06/29 12:25:45;;;;;;;10.97;10.17;;;30.70;99.90;;;;;;4903858;29;20849;-56
2021/06/29 12:28:14;;;;;;;10.60;9.80;;;30.50;99.90;;;;;;4904085;29;20883;-48
2021/06/29 12:30:43;;;;;;;11.90;11.00;;;30.20;99.90;;;;;;4902530;29;20923;-53
2021/06/29 12:33:23;;;;;;;13.40;12.30;;;30.30;99.90;;;;;;4903712;29;20820;-49
2021/06/29 12:35:54;;;;;;;15.07;13.67;;;27.70;99.90;;;;;;4896041;29;20456;-51
2021/06/29 12:38:25;;;;;;;15.77;14.60;;;27.20;99.90;;;;;;4903993;29;20440;-52
2021/06/29 12:40:55;;;;;;;18.23;16.73;;;26.40;99.90;;;;;;4903419;29;20530;-50
2021/06/29 12:43:32;;;;;;;17.80;16.40;;;26.00;99.90;;;;;;4902990;29;20478;-50
2021/06/29 12:46:15;;;;;;;16.63;15.33;;;26.10;99.90;;;;;;4897583;29;20903;-46
2021/06/29 12:48:56;;;;;;;17.67;15.80;;;26.10;99.90;;;;;;4903893;29;20473;-51
2021/06/29 12:51:25;;;;;;;14.27;13.07;;;26.00;99.90;;;;;;4902997;29;20469;-46
2021/06/29 12:53:53;;;;;;;13.40;12.30;;;27.00;99.90;;;;;;4903800;29;20477;-52
2021/06/29 12:56:23;;;;;;;13.80;12.70;;;27.10;99.90;;;;;;4903740;29;20592;-53
2021/06/29 12:58:51;;;;;;;14.40;13.27;;;27.30;99.90;;;;;;4902758;29;20477;-53
2021/06/29 13:01:22;;;;;;;13.47;12.33;;;27.90;99.90;;;;;;4903417;29;20774;-51
2021/06/29 13:03:54;;;;;;;16.27;14.77;;;27.70;99.90;;;;;;4895231;29;20517;-55
2021/06/29 13:06:27;;;;;;;15.90;14.60;;;26.70;99.90;;;;;;4902406;29;20440;-56
2021/06/29 13:09:08;;;;;;;17.63;16.03;;;25.40;99.90;;;;;;4895684;29;20952;-49
2021/06/29 13:11:40;;;;;;;16.53;15.23;;;24.80;99.90;;;;;;4897716;29;20475;-56
2021/06/29 13:14:13;;;;;;;15.67;14.40;;;24.60;99.90;;;;;;4901497;29;20461;-53
2021/06/29 13:16:42;;;;;;;16.27;15.00;;;24.70;99.90;;;;;;4902945;29;20914;-50
2021/06/29 13:19:24;;;;;;;15.40;14.10;;;25.70;99.90;;;;;;4902231;29;20567;-56
2021/06/29 13:22:00;;;;;;;18.70;17.07;;;25.90;99.90;;;;;;4902225;29;20497;-54
2021/06/29 13:24:41;;;;;;;15.83;14.53;;;26.10;99.90;;;;;;4902315;29;20504;-49
2021/06/29 13:27:16;;;;;;;19.77;17.97;;;26.70;99.90;;;;;;4898223;29;20473;-54
2021/06/29 13:29:48;;;;;;;16.80;15.30;;;27.40;99.90;;;;;;4901305;29;20559;-53